Time;durP1;ratioP1;P1;durP2;ratioP2;P2;SDS_P1;SDS_P2;PMS_P1;PMS_P2;Temp;Humidity;BMP_temperature;BMP_pressure;BME280_temperature;BME280_humidity;BME280_pressure;Samples;Min_cycle;Max_cycle;Signal;HPM_P1;HPM_P2
2023/01/21 00:01:53;;;;;;;22.73;11.32;;;;;;;;;;4977627;28;20039;-72
2023/01/21 00:04:19;;;;;;;21.35;11.27;;;;;;;;;;4978799;28;20038;-72
2023/01/21 00:06:45;;;;;;;27.00;11.88;;;;;;;;;;4978984;28;20034;-72
2023/01/21 00:09:11;;;;;;;22.05;12.05;;;;;;;;;;4977180;28;20019;-73
2023/01/21 00:11:37;;;;;;;22.15;12.60;;;;;;;;;;4978944;28;20015;-73
2023/01/21 00:14:03;;;;;;;23.95;11.45;;;;;;;;;;4978652;28;20482;-73
2023/01/21 00:16:29;;;;;;;24.58;12.05;;;;;;;;;;4977744;28;20130;-73
2023/01/21 00:18:56;;;;;;;22.17;12.13;;;;;;;;;;4978294;28;20110;-72
2023/01/21 00:21:22;;;;;;;19.83;10.85;;;;;;;;;;4978621;28;20022;-72
2023/01/21 00:23:48;;;;;;;25.27;10.80;;;;;;;;;;4977356;28;20049;-72
2023/01/21 00:26:14;;;;;;;20.92;10.77;;;;;;;;;;4977317;28;20031;-72
2023/01/21 00:28:45;;;;;;;22.80;10.52;;;;;;;;;;4978073;28;20030;-71
2023/01/21 00:31:11;;;;;;;26.20;12.65;;;;;;;;;;4978583;28;20027;-72
2023/01/21 00:33:37;;;;;;;26.52;12.80;;;;;;;;;;4978426;28;20115;-71
2023/01/21 00:36:03;;;;;;;23.67;12.38;;;;;;;;;;4978520;28;20081;-71
2023/01/21 00:38:30;;;;;;;24.77;12.20;;;;;;;;;;4978129;28;20027;-72
2023/01/21 00:40:59;;;;;;;25.00;12.38;;;;;;;;;;4978447;28;20382;-72
2023/01/21 00:43:25;;;;;;;25.48;12.38;;;;;;;;;;4978459;28;20048;-70
2023/01/21 00:45:51;;;;;;;28.17;12.65;;;;;;;;;;4978685;28;20031;-71
2023/01/21 00:48:17;;;;;;;26.92;13.18;;;;;;;;;;4977999;28;20427;-71
2023/01/21 00:50:43;;;;;;;29.05;12.07;;;;;;;;;;4979379;28;20070;-72
2023/01/21 00:53:09;;;;;;;25.80;12.00;;;;;;;;;;4977526;28;20151;-71
2023/01/21 00:55:35;;;;;;;30.88;12.70;;;;;;;;;;4977159;28;20026;-71
2023/01/21 00:58:01;;;;;;;25.33;12.40;;;;;;;;;;4977991;28;20030;-71
2023/01/21 01:00:27;;;;;;;24.75;12.43;;;;;;;;;;4975245;28;20126;-72
2023/01/21 01:02:53;;;;;;;27.50;13.05;;;;;;;;;;4975346;28;20050;-72
2023/01/21 01:05:21;;;;;;;29.77;14.32;;;;;;;;;;4973940;28;20141;-70
2023/01/21 01:07:49;;;;;;;27.55;14.20;;;;;;;;;;4974747;28;20105;-71
2023/01/21 01:10:15;;;;;;;30.63;14.27;;;;;;;;;;4973573;28;20027;-71
2023/01/21 01:12:41;;;;;;;34.85;15.63;;;;;;;;;;4974973;28;20481;-72
2023/01/21 01:15:07;;;;;;;39.92;18.08;;;;;;;;;;4974879;28;20030;-71
2023/01/21 01:17:33;;;;;;;36.15;17.15;;;;;;;;;;4974836;28;20030;-70
2023/01/21 01:19:59;;;;;;;45.20;20.30;;;;;;;;;;4975045;28;20027;-71
2023/01/21 01:22:25;;;;;;;38.78;18.63;;;;;;;;;;4974738;28;20034;-72
2023/01/21 01:24:52;;;;;;;37.95;18.15;;;;;;;;;;4974747;28;20026;-72
2023/01/21 01:27:18;;;;;;;40.67;17.90;;;;;;;;;;4974656;28;20022;-72
2023/01/21 01:29:44;;;;;;;38.30;17.50;;;;;;;;;;4974763;28;20379;-72
2023/01/21 01:32:10;;;;;;;33.90;16.13;;;;;;;;;;4974676;28;20031;-72
2023/01/21 01:34:37;;;;;;;30.70;14.73;;;;;;;;;;4974710;28;20027;-71
2023/01/21 01:37:03;;;;;;;33.63;15.75;;;;;;;;;;4974567;28;20440;-73
2023/01/21 01:39:30;;;;;;;32.40;15.98;;;;;;;;;;4974536;28;20420;-73
2023/01/21 01:41:56;;;;;;;33.53;16.45;;;;;;;;;;4975496;28;20035;-73
2023/01/21 01:44:41;;;;;;;41.85;18.63;;;;;;;;;;4975562;28;20038;-71
2023/01/21 01:47:07;;;;;;;34.00;16.27;;;;;;;;;;4974337;28;20041;-70
2023/01/21 01:49:48;;;;;;;35.67;16.42;;;;;;;;;;4975885;28;20022;-72
2023/01/21 01:52:15;;;;;;;38.90;17.48;;;;;;;;;;4957061;28;20039;-73
2023/01/21 01:54:43;;;;;;;39.65;18.60;;;;;;;;;;4974232;28;20424;-71
2023/01/21 01:57:11;;;;;;;41.53;18.08;;;;;;;;;;4972447;28;20031;-73
2023/01/21 01:59:37;;;;;;;39.60;18.73;;;;;;;;;;4973980;28;20035;-72
2023/01/21 02:02:05;;;;;;;38.92;18.45;;;;;;;;;;4974187;28;20411;-72
2023/01/21 02:04:34;;;;;;;37.08;18.25;;;;;;;;;;4973976;28;20454;-72
2023/01/21 02:07:00;;;;;;;37.30;17.30;;;;;;;;;;4972347;28;20026;-72
2023/01/21 02:09:28;;;;;;;38.58;16.92;;;;;;;;;;4974087;28;20106;-73
2023/01/21 02:11:55;;;;;;;35.05;16.95;;;;;;;;;;4973509;28;20033;-71
2023/01/21 02:14:21;;;;;;;34.70;17.10;;;;;;;;;;4973590;28;20030;-71
2023/01/21 02:17:00;;;;;;;33.95;17.45;;;;;;;;;;4973912;28;20227;-70
2023/01/21 02:19:32;;;;;;;39.03;18.73;;;;;;;;;;4959002;28;20030;-70
2023/01/21 02:22:01;;;;;;;35.40;16.88;;;;;;;;;;4974035;28;20042;-71
2023/01/21 02:24:48;;;;;;;37.20;19.25;;;;;;;;;;4972932;28;20066;-72
2023/01/21 02:27:24;;;;;;;36.95;17.25;;;;;;;;;;4973575;28;20066;-72
2023/01/21 02:29:59;;;;;;;42.13;18.00;;;;;;;;;;4972536;28;20027;-71
2023/01/21 02:32:25;;;;;;;41.13;19.25;;;;;;;;;;4972297;28;20031;-71
2023/01/21 02:35:04;;;;;;;37.30;17.77;;;;;;;;;;4973431;28;20038;-71
2023/01/21 02:37:36;;;;;;;38.15;19.40;;;;;;;;;;4958722;28;20114;-72
2023/01/21 02:40:08;;;;;;;36.97;18.10;;;;;;;;;;4973328;28;20474;-71
2023/01/21 02:42:46;;;;;;;46.38;21.02;;;;;;;;;;4972123;28;20402;-71
2023/01/21 02:45:12;;;;;;;45.17;21.00;;;;;;;;;;4972135;28;20271;-72
2023/01/21 02:48:04;;;;;;;44.70;20.25;;;;;;;;;;4972811;28;20049;-71
2023/01/21 02:50:32;;;;;;;44.83;19.45;;;;;;;;;;4973189;28;20023;-72
2023/01/21 02:52:58;;;;;;;52.17;21.85;;;;;;;;;;4971776;28;20382;-72
2023/01/21 02:55:27;;;;;;;51.75;22.60;;;;;;;;;;4972072;28;20450;-71
2023/01/21 02:57:55;;;;;;;51.80;23.73;;;;;;;;;;4971742;28;20382;-72
2023/01/21 03:00:41;;;;;;;47.08;20.42;;;;;;;;;;5010828;22;20377;-74
2023/01/21 03:03:22;;;;;;;57.83;21.95;;;;;;;;;;4990329;28;20473;-75
2023/01/21 03:05:48;;;;;;;57.60;21.33;;;;;;;;;;4992745;28;20405;-74
2023/01/21 03:08:22;;;;;;;50.50;22.15;;;;;;;;;;4992249;28;20038;-75
2023/01/21 03:10:50;;;;;;;47.53;19.60;;;;;;;;;;4992287;28;20033;-74
2023/01/21 03:16:55;;;;;;;39.13;16.83;;;;;;;;;;4992248;28;20030;-75
2023/01/21 03:18:52;;;;;;;34.38;15.73;;;;;;;;;;4992319;28;20085;-73
2023/01/21 03:21:21;;;;;;;48.42;20.30;;;;;;;;;;4992346;28;20050;-74
2023/01/21 03:23:50;;;;;;;44.50;18.67;;;;;;;;;;4992045;28;20177;-73
2023/01/21 03:26:19;;;;;;;43.75;18.55;;;;;;;;;;4992264;28;20473;-74
2023/01/21 03:28:46;;;;;;;36.85;16.83;;;;;;;;;;4992155;28;20026;-75
2023/01/21 03:31:16;;;;;;;37.88;16.13;;;;;;;;;;4991312;28;20022;-75
2023/01/21 03:33:44;;;;;;;40.08;14.32;;;;;;;;;;4993201;28;20015;-76
2023/01/21 03:36:14;;;;;;;35.15;14.05;;;;;;;;;;4987016;28;20409;-76
2023/01/21 03:38:45;;;;;;;34.67;15.45;;;;;;;;;;4992321;28;20499;-76
2023/01/21 03:41:11;;;;;;;;;;;;;;;;;;4993055;28;20042;-76
2023/01/21 03:43:37;;;;;;;30.27;13.55;;;;;;;;;;4992939;28;20284;-76
2023/01/21 03:46:11;;;;;;;30.30;13.07;;;;;;;;;;4990600;28;20033;-76
2023/01/21 03:48:37;;;;;;;32.65;13.93;;;;;;;;;;4988149;28;20026;-76
2023/01/21 03:51:06;;;;;;;30.00;13.27;;;;;;;;;;4990479;28;20030;-75
2023/01/21 03:53:32;;;;;;;31.30;14.27;;;;;;;;;;4990675;28;20081;-76
2023/01/21 03:55:58;;;;;;;30.10;14.95;;;;;;;;;;4992167;28;20041;-76
2023/01/21 03:58:25;;;;;;;32.63;15.40;;;;;;;;;;4992163;28;20405;-76
2023/01/21 04:00:51;;;;;;;35.92;16.25;;;;;;;;;;4991217;28;20493;-76
2023/01/21 04:03:17;;;;;;;34.47;15.60;;;;;;;;;;4994097;28;20086;-76
2023/01/21 04:05:43;;;;;;;30.98;16.73;;;;;;;;;;4995531;28;20053;-77
2023/01/21 04:08:09;;;;;;;31.30;14.48;;;;;;;;;;4995385;28;20034;-76
2023/01/21 04:10:35;;;;;;;31.63;15.95;;;;;;;;;;4995510;28;20110;-77
2023/01/21 04:13:01;;;;;;;32.28;16.60;;;;;;;;;;4994243;28;20038;-76
2023/01/21 04:15:27;;;;;;;33.83;16.23;;;;;;;;;;4991970;28;20026;-76
2023/01/21 04:17:53;;;;;;;33.88;16.40;;;;;;;;;;4989979;28;20311;-74
2023/01/21 04:20:19;;;;;;;41.53;18.40;;;;;;;;;;4992042;28;20034;-75
2023/01/21 04:22:45;;;;;;;37.25;18.60;;;;;;;;;;4992093;28;20030;-75
2023/01/21 04:25:11;;;;;;;42.92;19.15;;;;;;;;;;4991634;28;20030;-76
2023/01/21 04:27:37;;;;;;;46.78;19.20;;;;;;;;;;4991736;28;20037;-76
2023/01/21 04:30:03;;;;;;;41.42;19.83;;;;;;;;;;4992232;28;20034;-76
2023/01/21 04:32:29;;;;;;;41.80;19.30;;;;;;;;;;4992276;28;20114;-76
2023/01/21 04:34:55;;;;;;;40.85;18.80;;;;;;;;;;4991957;28;20093;-77
2023/01/21 04:37:21;;;;;;;36.90;18.95;;;;;;;;;;4995227;28;20030;-76
2023/01/21 04:39:47;;;;;;;36.28;19.63;;;;;;;;;;4995646;28;20045;-74
2023/01/21 04:42:13;;;;;;;39.63;19.83;;;;;;;;;;4995396;28;20022;-76
2023/01/21 04:44:39;;;;;;;40.97;21.17;;;;;;;;;;4995364;28;20113;-76
2023/01/21 04:47:05;;;;;;;37.67;18.73;;;;;;;;;;4993738;28;20125;-74
2023/01/21 04:49:31;;;;;;;43.55;19.58;;;;;;;;;;4995650;28;20026;-74
2023/01/21 04:51:57;;;;;;;37.40;18.25;;;;;;;;;;4994098;28;20073;-75
2023/01/21 04:54:23;;;;;;;42.08;19.27;;;;;;;;;;5007453;28;20030;-75
2023/01/21 04:56:49;;;;;;;35.28;19.08;;;;;;;;;;5011527;28;20034;-76
2023/01/21 04:59:15;;;;;;;39.67;19.55;;;;;;;;;;5002812;28;20112;-74
2023/01/21 05:01:41;;;;;;;31.67;16.88;;;;;;;;;;4997362;28;20074;-75
2023/01/21 05:04:07;;;;;;;35.58;17.27;;;;;;;;;;4995369;28;20030;-74
2023/01/21 05:06:33;;;;;;;33.63;16.67;;;;;;;;;;4994966;28;20033;-74
2023/01/21 05:08:59;;;;;;;32.28;16.27;;;;;;;;;;4994925;28;20488;-74
2023/01/21 05:11:25;;;;;;;31.77;15.95;;;;;;;;;;4994832;28;20026;-75
2023/01/21 05:13:51;;;;;;;35.20;16.25;;;;;;;;;;4994757;28;20034;-75
2023/01/21 05:16:17;;;;;;;34.15;17.15;;;;;;;;;;4994585;28;20031;-75
2023/01/21 05:18:44;;;;;;;29.77;15.18;;;;;;;;;;4993011;28;20401;-76
2023/01/21 05:21:10;;;;;;;31.48;15.18;;;;;;;;;;4993473;28;20031;-74
2023/01/21 05:23:36;;;;;;;31.42;15.52;;;;;;;;;;4994760;28;20047;-74
2023/01/21 05:26:03;;;;;;;28.15;12.93;;;;;;;;;;4993472;28;20512;-74
2023/01/21 05:28:29;;;;;;;27.67;14.20;;;;;;;;;;4994186;28;20038;-75
2023/01/21 05:30:59;;;;;;;26.83;14.15;;;;;;;;;;4994484;28;20038;-75
2023/01/21 05:33:28;;;;;;;31.00;14.95;;;;;;;;;;4994775;28;20019;-75
2023/01/21 05:35:54;;;;;;;31.10;14.80;;;;;;;;;;4994779;28;20030;-75
2023/01/21 05:38:20;;;;;;;29.58;14.35;;;;;;;;;;4994239;28;20061;-76
2023/01/21 05:40:46;;;;;;;29.58;14.18;;;;;;;;;;4994528;28;20034;-75
2023/01/21 05:43:12;;;;;;;27.70;14.85;;;;;;;;;;4992691;28;20034;-76
2023/01/21 05:45:38;;;;;;;30.42;15.35;;;;;;;;;;4993045;28;20033;-74
2023/01/21 05:48:04;;;;;;;32.25;15.43;;;;;;;;;;4993702;28;20034;-75
2023/01/21 05:50:31;;;;;;;44.15;18.17;;;;;;;;;;4994396;28;20026;-75
2023/01/21 05:52:57;;;;;;;41.25;18.60;;;;;;;;;;4994114;28;20034;-75
2023/01/21 05:55:23;;;;;;;43.75;19.42;;;;;;;;;;4993859;28;20539;-74
2023/01/21 05:57:50;;;;;;;46.20;19.35;;;;;;;;;;4992381;28;20026;-74
2023/01/21 06:00:16;;;;;;;44.83;17.95;;;;;;;;;;4993761;28;20066;-75
2023/01/21 06:02:42;;;;;;;42.83;18.75;;;;;;;;;;4992495;28;20452;-74
2023/01/21 06:05:08;;;;;;;45.05;18.95;;;;;;;;;;4993795;28;20026;-76
2023/01/21 06:07:34;;;;;;;45.40;19.40;;;;;;;;;;4993733;28;20146;-76
2023/01/21 06:10:00;;;;;;;46.47;19.40;;;;;;;;;;4992500;28;20492;-76
2023/01/21 06:12:26;;;;;;;45.03;17.90;;;;;;;;;;4993698;28;20117;-74
2023/01/21 06:14:52;;;;;;;50.45;19.00;;;;;;;;;;4993736;28;20221;-73
2023/01/21 06:17:18;;;;;;;49.25;19.55;;;;;;;;;;4993547;28;20041;-74
2023/01/21 06:19:44;;;;;;;52.90;19.33;;;;;;;;;;4993604;28;20484;-73
2023/01/21 06:22:14;;;;;;;43.10;17.95;;;;;;;;;;4993679;28;20033;-75
2023/01/21 06:24:40;;;;;;;58.88;20.35;;;;;;;;;;4994244;28;20027;-75
2023/01/21 06:27:06;;;;;;;52.47;20.33;;;;;;;;;;4993867;28;20037;-74
2023/01/21 06:29:32;;;;;;;57.60;20.70;;;;;;;;;;4993752;28;20396;-76
2023/01/21 06:31:58;;;;;;;51.55;19.95;;;;;;;;;;4993330;28;20393;-74
2023/01/21 06:34:24;;;;;;;55.00;21.90;;;;;;;;;;4993097;28;20480;-74
2023/01/21 06:36:50;;;;;;;60.20;21.52;;;;;;;;;;4993230;28;20034;-74
2023/01/21 06:39:16;;;;;;;50.70;21.33;;;;;;;;;;4993326;28;20027;-75
2023/01/21 06:41:42;;;;;;;50.97;19.77;;;;;;;;;;4992946;28;20034;-75
2023/01/21 06:44:08;;;;;;;56.80;20.92;;;;;;;;;;4993116;28;20030;-75
2023/01/21 06:46:34;;;;;;;60.10;21.77;;;;;;;;;;4992971;28;20034;-75
2023/01/21 06:49:00;;;;;;;55.03;21.52;;;;;;;;;;4992762;28;20054;-74
2023/01/21 06:51:26;;;;;;;44.10;19.10;;;;;;;;;;4992860;28;20027;-71
2023/01/21 06:53:52;;;;;;;48.15;19.33;;;;;;;;;;4992926;28;20031;-75
2023/01/21 06:56:18;;;;;;;43.20;19.90;;;;;;;;;;4992772;28;20034;-75
2023/01/21 06:58:44;;;;;;;37.30;15.55;;;;;;;;;;4992058;28;20049;-76
2023/01/21 07:01:10;;;;;;;38.25;14.73;;;;;;;;;;4992914;28;20037;-76
2023/01/21 07:03:36;;;;;;;34.13;16.02;;;;;;;;;;4992944;28;20121;-75
2023/01/21 07:06:02;;;;;;;35.55;15.18;;;;;;;;;;4992879;28;20106;-75
2023/01/21 07:08:28;;;;;;;37.03;17.52;;;;;;;;;;4992398;28;20388;-74
2023/01/21 07:10:54;;;;;;;35.42;15.38;;;;;;;;;;4992446;28;20036;-77
2023/01/21 07:13:20;;;;;;;30.05;15.13;;;;;;;;;;4992626;28;20516;-76
2023/01/21 07:15:46;;;;;;;33.55;16.70;;;;;;;;;;4992944;28;20033;-76
2023/01/21 07:18:12;;;;;;;37.72;16.30;;;;;;;;;;4991303;28;20030;-77
2023/01/21 07:20:39;;;;;;;36.05;15.80;;;;;;;;;;4992984;28;20528;-76
2023/01/21 07:23:05;;;;;;;36.92;17.33;;;;;;;;;;4992451;28;20038;-76
2023/01/21 07:25:31;;;;;;;34.20;15.23;;;;;;;;;;4993429;28;20060;-76
2023/01/21 07:27:57;;;;;;;39.28;18.10;;;;;;;;;;4992450;28;20488;-76
2023/01/21 07:30:23;;;;;;;37.22;16.60;;;;;;;;;;4992689;28;20113;-76
2023/01/21 07:32:49;;;;;;;30.20;14.98;;;;;;;;;;4993010;28;20056;-77
2023/01/21 07:35:15;;;;;;;34.15;14.93;;;;;;;;;;4993116;28;20105;-76
2023/01/21 07:37:41;;;;;;;34.17;16.67;;;;;;;;;;4993035;28;20118;-77
2023/01/21 07:40:08;;;;;;;33.25;16.33;;;;;;;;;;4993156;28;20034;-76
2023/01/21 07:42:34;;;;;;;27.67;14.45;;;;;;;;;;4993231;28;20029;-76
2023/01/21 07:45:02;;;;;;;29.58;14.38;;;;;;;;;;4992582;28;20101;-76
2023/01/21 07:47:28;;;;;;;29.23;15.38;;;;;;;;;;4994068;28;20026;-74
2023/01/21 07:49:54;;;;;;;38.80;17.73;;;;;;;;;;4994564;28;20023;-75
2023/01/21 07:52:20;;;;;;;29.77;15.70;;;;;;;;;;4994121;28;20022;-76
2023/01/21 07:54:47;;;;;;;31.40;15.10;;;;;;;;;;4993048;28;20018;-74
2023/01/21 07:57:13;;;;;;;32.40;16.52;;;;;;;;;;4990629;28;20023;-75
2023/01/21 07:59:39;;;;;;;32.72;15.52;;;;;;;;;;4992134;28;20085;-75
2023/01/21 08:02:05;;;;;;;30.67;15.52;;;;;;;;;;4992090;28;20104;-74
2023/01/21 08:04:31;;;;;;;28.52;14.77;;;;;;;;;;4992036;28;20432;-75
2023/01/21 08:06:57;;;;;;;35.03;17.00;;;;;;;;;;4991787;28;20113;-75
2023/01/21 08:09:24;;;;;;;29.67;15.30;;;;;;;;;;4992154;28;20022;-73
2023/01/21 08:11:50;;;;;;;30.42;15.80;;;;;;;;;;4996555;28;20030;-73
2023/01/21 08:14:16;;;;;;;29.48;14.90;;;;;;;;;;4990678;28;20046;-74
2023/01/21 08:16:42;;;;;;;36.42;17.10;;;;;;;;;;4995691;28;20097;-72
2023/01/21 08:19:08;;;;;;;26.92;14.88;;;;;;;;;;4996191;28;20027;-74
2023/01/21 08:21:34;;;;;;;28.35;15.43;;;;;;;;;;4997030;28;20030;-74
2023/01/21 08:24:00;;;;;;;33.90;16.73;;;;;;;;;;4994603;28;20028;-74
2023/01/21 08:26:26;;;;;;;30.60;16.67;;;;;;;;;;4995665;28;20018;-74
2023/01/21 08:28:55;;;;;;;31.27;14.30;;;;;;;;;;4993888;28;20030;-75
2023/01/21 08:31:21;;;;;;;32.42;16.60;;;;;;;;;;4988903;28;20110;-75
2023/01/21 08:33:47;;;;;;;30.40;15.07;;;;;;;;;;4996460;28;20030;-75
2023/01/21 08:36:14;;;;;;;32.03;16.33;;;;;;;;;;4995105;28;20345;-73
2023/01/21 08:38:40;;;;;;;27.45;14.77;;;;;;;;;;4995950;28;20036;-74
2023/01/21 08:41:06;;;;;;;26.80;15.13;;;;;;;;;;4996386;28;20030;-73
2023/01/21 08:43:32;;;;;;;31.13;14.70;;;;;;;;;;4996314;28;20113;-74
2023/01/21 08:46:00;;;;;;;31.95;15.05;;;;;;;;;;4991840;28;20037;-74
2023/01/21 08:48:26;;;;;;;34.30;16.80;;;;;;;;;;4990070;28;20400;-75
2023/01/21 08:50:52;;;;;;;33.08;18.17;;;;;;;;;;4993862;28;20027;-77
2023/01/21 08:53:18;;;;;;;31.70;16.90;;;;;;;;;;4995306;28;20019;-74
2023/01/21 08:55:44;;;;;;;33.53;17.65;;;;;;;;;;4994147;28;20038;-75
2023/01/21 08:58:10;;;;;;;36.03;17.60;;;;;;;;;;4995067;28;20279;-75
2023/01/21 09:00:36;;;;;;;33.05;17.23;;;;;;;;;;5001149;23;20053;-71
2023/01/21 09:03:03;;;;;;;38.85;18.77;;;;;;;;;;4970511;28;20089;-72
2023/01/21 09:05:29;;;;;;;37.72;17.83;;;;;;;;;;4973276;28;20022;-72
2023/01/21 09:07:55;;;;;;;35.92;19.05;;;;;;;;;;4971751;28;20268;-73
2023/01/21 09:13:06;;;;;;;31.45;16.35;;;;;;;;;;4970814;28;20412;-72
2023/01/21 09:15:36;;;;;;;33.38;17.67;;;;;;;;;;4970173;28;20019;-73
2023/01/21 09:18:02;;;;;;;39.03;18.63;;;;;;;;;;4963961;28;20037;-72
2023/01/21 09:20:28;;;;;;;32.97;16.00;;;;;;;;;;4974953;28;20147;-72
2023/01/21 09:22:54;;;;;;;35.33;18.45;;;;;;;;;;4974547;28;20130;-71
2023/01/21 09:25:41;;;;;;;35.10;18.42;;;;;;;;;;4975096;28;20023;-74
2023/01/21 09:28:29;;;;;;;39.85;17.73;;;;;;;;;;4974963;28;20113;-74
2023/01/21 09:30:57;;;;;;;36.72;17.38;;;;;;;;;;4971721;28;20063;-72
2023/01/21 09:33:23;;;;;;;34.00;17.52;;;;;;;;;;4974997;28;20015;-73
2023/01/21 09:35:53;;;;;;;34.72;18.52;;;;;;;;;;4973846;28;20473;-74
2023/01/21 09:38:19;;;;;;;37.08;18.02;;;;;;;;;;4974489;28;20066;-70
2023/01/21 09:40:45;;;;;;;38.70;20.35;;;;;;;;;;4974899;28;20039;-73
2023/01/21 09:43:14;;;;;;;40.55;20.45;;;;;;;;;;4972585;28;20030;-72
2023/01/21 09:45:42;;;;;;;36.03;18.90;;;;;;;;;;4975090;28;20393;-72
2023/01/21 09:48:10;;;;;;;35.67;18.67;;;;;;;;;;4974529;28;20026;-72
2023/01/21 09:50:38;;;;;;;34.70;17.17;;;;;;;;;;4972702;28;20030;-72
2023/01/21 09:53:10;;;;;;;37.45;17.98;;;;;;;;;;4972899;28;20014;-73
2023/01/21 09:55:42;;;;;;;46.53;22.92;;;;;;;;;;4973102;28;20018;-73
2023/01/21 09:58:11;;;;;;;32.50;17.13;;;;;;;;;;4974513;28;20094;-73
2023/01/21 10:00:53;;;;;;;31.83;16.88;;;;;;;;;;4974375;28;20134;-73
2023/01/21 10:03:19;;;;;;;31.15;16.95;;;;;;;;;;4970786;28;20037;-72
2023/01/21 10:06:00;;;;;;;31.20;16.83;;;;;;;;;;4972783;28;20031;-73
2023/01/21 10:08:32;;;;;;;33.95;17.90;;;;;;;;;;4973672;28;20031;-73
2023/01/21 10:11:14;;;;;;;33.15;18.38;;;;;;;;;;4974032;28;20304;-72
2023/01/21 10:13:43;;;;;;;34.75;18.38;;;;;;;;;;4974396;28;20023;-72
2023/01/21 10:16:14;;;;;;;39.75;20.42;;;;;;;;;;4972731;28;20027;-73
2023/01/21 10:18:41;;;;;;;29.17;16.40;;;;;;;;;;4974157;28;20519;-72
2023/01/21 10:21:22;;;;;;;35.97;17.77;;;;;;;;;;4973071;28;20035;-72
2023/01/21 10:23:56;;;;;;;34.15;18.33;;;;;;;;;;4962231;28;20023;-73
2023/01/21 10:26:22;;;;;;;35.38;19.08;;;;;;;;;;4974106;28;20555;-72
2023/01/21 10:28:53;;;;;;;31.27;16.98;;;;;;;;;;4972475;28;20421;-73
2023/01/21 10:31:19;;;;;;;;;;;;;;;;;;4958566;28;20409;-72
2023/01/21 10:33:45;;;;;;;32.67;16.15;;;;;;;;;;4973047;28;19906;-72
2023/01/21 10:36:11;;;;;;;32.90;17.85;;;;;;;;;;4973603;28;20019;-73
2023/01/21 10:38:43;;;;;;;32.90;18.30;;;;;;;;;;4972037;28;20037;-72
2023/01/21 10:41:19;;;;;;;33.22;16.85;;;;;;;;;;4973285;28;20030;-74
2023/01/21 10:43:48;;;;;;;28.60;16.40;;;;;;;;;;4972315;28;20031;-72
2023/01/21 10:46:17;;;;;;;35.20;17.73;;;;;;;;;;4973647;28;20027;-73
2023/01/21 10:48:46;;;;;;;28.55;15.93;;;;;;;;;;4974349;28;20205;-73
2023/01/21 10:51:21;;;;;;;31.10;15.13;;;;;;;;;;4974024;28;20027;-72
2023/01/21 10:53:50;;;;;;;26.67;15.68;;;;;;;;;;4972721;28;20026;-73
2023/01/21 10:56:35;;;;;;;;;;;;;;;;;;;;;
2023/01/21 10:59:31;;;;;;;27.63;14.00;;;;;;;;;;4969784;28;20264;-72
2023/01/21 11:02:04;;;;;;;26.83;14.68;;;;;;;;;;4950458;28;20046;-73
2023/01/21 11:04:30;;;;;;;26.95;15.05;;;;;;;;;;4973285;28;20030;-70
2023/01/21 11:06:56;;;;;;;26.83;14.95;;;;;;;;;;4971417;28;20149;-73
2023/01/21 11:09:24;;;;;;;27.25;14.95;;;;;;;;;;4971227;28;20026;-71
2023/01/21 11:11:50;;;;;;;27.88;15.88;;;;;;;;;;4969819;28;20050;-71
2023/01/21 11:14:16;;;;;;;29.83;15.73;;;;;;;;;;4972383;28;20481;-72
2023/01/21 11:16:43;;;;;;;27.02;15.50;;;;;;;;;;4972740;28;20106;-71
2023/01/21 11:19:14;;;;;;;28.50;14.85;;;;;;;;;;4971018;28;20411;-71
2023/01/21 11:21:40;;;;;;;24.92;14.30;;;;;;;;;;4972320;28;20201;-71
2023/01/21 11:24:22;;;;;;;31.35;16.17;;;;;;;;;;4973077;28;20053;-71
2023/01/21 11:26:53;;;;;;;25.30;14.57;;;;;;;;;;4972472;28;20046;-72
2023/01/21 11:29:20;;;;;;;26.48;14.18;;;;;;;;;;4956708;28;20045;-71
2023/01/21 11:31:47;;;;;;;24.50;14.45;;;;;;;;;;4972783;28;20035;-72
2023/01/21 11:34:16;;;;;;;26.52;15.40;;;;;;;;;;4972693;28;20030;-72
2023/01/21 11:36:59;;;;;;;25.08;14.48;;;;;;;;;;4972657;28;20023;-72
2023/01/21 11:39:26;;;;;;;22.85;14.25;;;;;;;;;;4955173;28;20489;-71
2023/01/21 11:41:56;;;;;;;28.40;15.70;;;;;;;;;;4985920;28;20027;-71
2023/01/21 11:44:23;;;;;;;23.13;14.52;;;;;;;;;;4972213;28;20023;-73
2023/01/21 11:46:49;;;;;;;27.25;15.20;;;;;;;;;;4972747;28;20027;-71
2023/01/21 11:49:37;;;;;;;24.90;14.90;;;;;;;;;;4972620;28;20055;-72
2023/01/21 11:52:37;;;;;;;28.20;15.18;;;;;;;;;;4969280;28;20054;-74
2023/01/21 11:55:23;;;;;;;26.90;15.38;;;;;;;;;;4972285;28;20118;-72
2023/01/21 11:57:54;;;;;;;26.73;14.40;;;;;;;;;;4972590;28;20526;-73
2023/01/21 12:00:22;;;;;;;24.38;14.52;;;;;;;;;;5024279;23;20053;-72
2023/01/21 12:02:50;;;;;;;27.17;15.38;;;;;;;;;;5007479;28;20034;-73
2023/01/21 12:05:19;;;;;;;28.15;16.38;;;;;;;;;;4993775;28;20053;-73
2023/01/21 12:07:48;;;;;;;30.38;16.55;;;;;;;;;;5003338;28;20038;-72
2023/01/21 12:10:22;;;;;;;28.60;16.15;;;;;;;;;;4989882;28;20026;-71
2023/01/21 12:12:48;;;;;;;26.98;16.20;;;;;;;;;;4989793;28;20314;-72
2023/01/21 12:15:23;;;;;;;25.85;15.50;;;;;;;;;;5004772;22;20520;-74
2023/01/21 12:18:08;;;;;;;25.65;15.68;;;;;;;;;;4989038;28;20035;-73
2023/01/21 12:20:45;;;;;;;24.50;15.25;;;;;;;;;;4989528;28;20038;-73
2023/01/21 12:23:37;;;;;;;29.33;17.27;;;;;;;;;;4990142;28;20114;-73
2023/01/21 12:26:09;;;;;;;27.98;16.45;;;;;;;;;;4989633;28;20039;-73
2023/01/21 12:28:35;;;;;;;26.83;15.52;;;;;;;;;;4991914;28;20489;-74
2023/01/21 12:31:04;;;;;;;25.58;15.80;;;;;;;;;;4990390;28;20026;-74
2023/01/21 12:33:30;;;;;;;29.20;16.00;;;;;;;;;;4992002;28;20329;-74
2023/01/21 12:36:04;;;;;;;24.65;15.35;;;;;;;;;;4991839;28;20027;-73
2023/01/21 12:38:35;;;;;;;26.42;15.20;;;;;;;;;;4992161;28;20038;-73
2023/01/21 12:41:25;;;;;;;22.92;13.77;;;;;;;;;;4991821;28;20034;-74
2023/01/21 12:43:57;;;;;;;22.17;14.00;;;;;;;;;;4986447;28;20097;-73
2023/01/21 12:46:23;;;;;;;22.23;13.50;;;;;;;;;;4991819;28;20022;-74
2023/01/21 12:49:01;;;;;;;23.45;13.90;;;;;;;;;;4991859;28;20034;-74
2023/01/21 12:51:33;;;;;;;22.10;13.25;;;;;;;;;;4976629;28;20023;-74
2023/01/21 12:54:05;;;;;;;21.40;13.25;;;;;;;;;;4991496;28;20515;-74
2023/01/21 12:56:44;;;;;;;26.08;14.48;;;;;;;;;;4991811;28;20026;-74
2023/01/21 12:59:16;;;;;;;23.10;13.82;;;;;;;;;;4994927;28;20109;-74
2023/01/21 13:01:45;;;;;;;24.17;14.25;;;;;;;;;;4995041;28;20030;-73
2023/01/21 13:04:20;;;;;;;22.65;14.48;;;;;;;;;;4994811;28;20031;-73
2023/01/21 13:06:50;;;;;;;22.02;13.90;;;;;;;;;;4994644;28;20491;-74
2023/01/21 13:09:21;;;;;;;23.88;13.38;;;;;;;;;;4994571;28;20433;-74
2023/01/21 13:11:59;;;;;;;23.63;14.48;;;;;;;;;;4993717;28;20058;-74
2023/01/21 13:14:28;;;;;;;23.83;13.70;;;;;;;;;;4994549;28;20032;-74
2023/01/21 13:16:57;;;;;;;24.42;14.70;;;;;;;;;;4994619;28;20023;-71
2023/01/21 13:19:23;;;;;;;24.35;14.07;;;;;;;;;;4994701;28;20388;-73
2023/01/21 13:22:04;;;;;;;24.27;14.68;;;;;;;;;;4994764;28;20022;-74
2023/01/21 13:24:49;;;;;;;26.75;15.80;;;;;;;;;;4995009;28;20069;-75
2023/01/21 13:27:19;;;;;;;24.70;13.90;;;;;;;;;;4992984;28;20042;-73
2023/01/21 13:29:48;;;;;;;22.13;13.70;;;;;;;;;;4993062;28;20117;-73
2023/01/21 13:32:14;;;;;;;22.40;13.68;;;;;;;;;;4992872;28;20030;-74
2023/01/21 13:34:56;;;;;;;26.88;15.68;;;;;;;;;;4994213;28;20026;-73
2023/01/21 13:37:32;;;;;;;25.70;15.05;;;;;;;;;;4978546;28;20086;-74
2023/01/21 13:40:19;;;;;;;24.98;14.85;;;;;;;;;;4994545;28;20022;-72
2023/01/21 13:43:08;;;;;;;30.75;16.05;;;;;;;;;;4990956;28;20523;-72
2023/01/21 13:45:52;;;;;;;26.42;15.57;;;;;;;;;;4974436;28;20039;-71
2023/01/21 13:48:18;;;;;;;29.63;17.13;;;;;;;;;;4993661;28;20481;-70
2023/01/21 13:50:47;;;;;;;28.27;17.33;;;;;;;;;;4993450;28;20026;-71
2023/01/21 13:53:29;;;;;;;35.17;18.45;;;;;;;;;;4994043;28;20507;-71
2023/01/21 13:56:19;;;;;;;31.55;17.55;;;;;;;;;;4993868;28;20029;-71
2023/01/21 13:58:51;;;;;;;34.53;19.20;;;;;;;;;;4992603;28;20054;-73
2023/01/21 14:01:29;;;;;;;42.05;21.60;;;;;;;;;;4993862;28;20496;-72
2023/01/21 14:04:08;;;;;;;36.08;19.60;;;;;;;;;;4993832;28;20045;-73
2023/01/21 14:06:52;;;;;;;39.47;19.77;;;;;;;;;;4993741;28;20507;-73
2023/01/21 14:09:29;;;;;;;40.35;21.63;;;;;;;;;;4993286;28;20030;-72
2023/01/21 14:12:13;;;;;;;37.63;19.40;;;;;;;;;;4993897;28;20030;-71
2023/01/21 14:14:39;;;;;;;37.55;18.95;;;;;;;;;;4993443;28;20026;-72
2023/01/21 14:17:24;;;;;;;33.70;17.95;;;;;;;;;;4991814;28;20461;-72
2023/01/21 14:20:09;;;;;;;38.05;19.20;;;;;;;;;;4980140;28;20057;-72
2023/01/21 14:22:57;;;;;;;38.78;19.60;;;;;;;;;;4993604;28;20073;-74
2023/01/21 14:25:48;;;;;;;33.47;18.02;;;;;;;;;;4993303;28;20025;-73
2023/01/21 14:28:20;;;;;;;33.97;18.98;;;;;;;;;;4991826;28;20458;-72
2023/01/21 14:30:57;;;;;;;32.75;17.98;;;;;;;;;;4993790;28;20389;-72
2023/01/21 14:33:27;;;;;;;42.50;20.45;;;;;;;;;;4992653;28;20050;-72
2023/01/21 14:36:03;;;;;;;31.17;14.90;;;;;;;;;;4993426;28;20113;-73
2023/01/21 14:38:33;;;;;;;40.60;19.83;;;;;;;;;;4993347;28;20406;-74